Portada
METAR-TAF:

METAR-TAF

Aeroports :

Georgetown, Illa de l'Ascensió

latitud: 07-58S, longitud: 014-24W, altitud: 86 m

METAR: manca

Hora: 19:45 (19:45 UTC)

Pronòstic

L'informe es va fer fa 3 hores i 15 minuts, a les 16:30 UTC
Pronòstic vàlid del 18 a les 18 UTC al 19 a les 12 UTC
Vent 14 kt del Sud-Est
Visibilitat 10 km o més
Escasses núvols a una alçada de 2600 ft
Probabilitat 30% :
Temporalment
l' 19 a les 00 UTC al 19 a les 12 UTC
Vent 15 kt del Sud-Est amb ràfegues de 25 kt
Núvols disperses a una alçada de 2200 ft

TAF: FHAW 181630Z 1818/1912 13014KT 9999 FEW026 PROB30 TEMPO 1900/1912 13015G25KT SCT022

Observacions i pronòstics meteorològics de més de 4000 aeroports (METAR i TAF).

Les estacions disponibles són els punts grocs i vermells al mapa.

Posi el ratolí al punt desitjat per veure el nom de l'estació.

Feu clic per veure les observacions i els pronòstics meteorològics.

Per canviar el mapa: feu clic els botons verds amb una creu de color negre per apropar; al botó verd amb un guió per allunyar la imatge; o en les fletxes verdes per a mapes adjacents.


METAR-TAF: